Terminal Aerodrome Forecast
Issued by NWS

Home | Current Version | Previous Version | Text Only | Print | Product List | Glossary On
Versions: 1 2 3 4 5 6 7 8 9 10 11 12 13
000
FTUS43 KOAX 271139
TAFBFF
TAF
KBFF 271139Z 2712/2812 12008KT P6SM BKN200
     FM271500 32006KT P6SM BKN150
     FM271800 12012G22KT P6SM SCT060
     FM280000 09016G26KT P6SM VCTS BKN080CB
     FM280600 32008KT P6SM VCSH SCT025 BKN040=

USA.gov is the U.S. government's official web portal to all federal, state and local government web resources and services.